sensor_id;sensor_type;location;lat;lon;timestamp;pressure;altitude;pressure_sealevel;temperature;humidity
71105;BME280;58760;48.716;8.962;2022-08-23T00:01:54;96385.94;;;16.90;63.88
71105;BME280;58760;48.716;8.962;2022-08-23T00:04:24;96384.34;;;16.82;63.77
71105;BME280;58760;48.716;8.962;2022-08-23T00:06:50;96388.41;;;16.91;63.21
71105;BME280;58760;48.716;8.962;2022-08-23T00:09:18;96385.94;;;16.90;64.02
71105;BME280;58760;48.716;8.962;2022-08-23T00:14:16;96390.16;;;16.72;65.84
71105;BME280;58760;48.716;8.962;2022-08-23T00:16:43;96388.34;;;16.66;67.16
71105;BME280;58760;48.716;8.962;2022-08-23T00:19:11;96378.66;;;16.65;66.56
71105;BME280;58760;48.716;8.962;2022-08-23T00:21:39;96390.22;;;16.53;65.46
71105;BME280;58760;48.716;8.962;2022-08-23T00:24:06;96384.31;;;16.44;65.72
71105;BME280;58760;48.716;8.962;2022-08-23T00:27:13;96380.81;;;16.37;65.06
71105;BME280;58760;48.716;8.962;2022-08-23T00:29:50;96376.69;;;16.41;64.41
71105;BME280;58760;48.716;8.962;2022-08-23T00:32:21;96376.44;;;16.49;65.70
71105;BME280;58760;48.716;8.962;2022-08-23T00:34:47;96376.69;;;16.41;66.29
71105;BME280;58760;48.716;8.962;2022-08-23T00:37:12;96379.16;;;16.43;67.93
71105;BME280;58760;48.716;8.962;2022-08-23T00:39:39;96379.16;;;16.36;66.82
71105;BME280;58760;48.716;8.962;2022-08-23T00:42:06;96373.41;;;16.33;66.81
71105;BME280;58760;48.716;8.962;2022-08-23T00:44:55;96368.91;;;16.27;66.20
71105;BME280;58760;48.716;8.962;2022-08-23T00:47:56;96366.88;;;16.22;65.97
71105;BME280;58760;48.716;8.962;2022-08-23T00:50:33;96365.66;;;16.18;65.89
71105;BME280;58760;48.716;8.962;2022-08-23T00:53:09;96368.13;;;16.13;65.96
71105;BME280;58760;48.716;8.962;2022-08-23T00:55:39;96366.09;;;16.15;66.22
71105;BME280;58760;48.716;8.962;2022-08-23T00:58:07;96361.75;;;16.14;66.05
71105;BME280;58760;48.716;8.962;2022-08-23T01:00:33;96359.50;;;16.11;65.47
71105;BME280;58760;48.716;8.962;2022-08-23T01:02:58;96356.63;;;16.12;65.27
71105;BME280;58760;48.716;8.962;2022-08-23T01:05:27;96360.50;;;16.16;64.79
71105;BME280;58760;48.716;8.962;2022-08-23T01:07:56;96369.16;;;16.18;64.64
71105;BME280;58760;48.716;8.962;2022-08-23T01:10:30;96372.66;;;16.19;65.11
71105;BME280;58760;48.716;8.962;2022-08-23T01:13:13;96377.22;;;16.12;65.68
71105;BME280;58760;48.716;8.962;2022-08-23T01:15:47;96378.50;;;16.03;66.69
71105;BME280;58760;48.716;8.962;2022-08-23T01:18:17;96382.41;;;15.94;66.92
71105;BME280;58760;48.716;8.962;2022-08-23T01:20:57;96374.78;;;15.91;66.95
71105;BME280;58760;48.716;8.962;2022-08-23T01:26:01;96379.13;;;15.85;66.32
71105;BME280;58760;48.716;8.962;2022-08-23T01:28:27;96372.34;;;15.83;66.17
71105;BME280;58760;48.716;8.962;2022-08-23T01:30:53;96380.56;;;15.81;66.08
71105;BME280;58760;48.716;8.962;2022-08-23T01:33:19;96378.94;;;15.80;65.66
71105;BME280;58760;48.716;8.962;2022-08-23T01:35:50;96373.19;;;15.77;66.28
71105;BME280;58760;48.716;8.962;2022-08-23T01:38:18;96374.41;;;15.74;66.27
71105;BME280;58760;48.716;8.962;2022-08-23T01:40:43;96384.50;;;15.85;66.10
71105;BME280;58760;48.716;8.962;2022-08-23T01:43:09;96376.47;;;15.85;66.55
71105;BME280;58760;48.716;8.962;2022-08-23T01:45:37;96379.34;;;15.84;66.26
71105;BME280;58760;48.716;8.962;2022-08-23T01:48:02;96387.34;;;15.84;65.98
71105;BME280;58760;48.716;8.962;2022-08-23T01:50:28;96385.34;;;15.73;68.33
71105;BME280;58760;48.716;8.962;2022-08-23T01:52:54;96380.19;;;15.64;68.55
71105;BME280;58760;48.716;8.962;2022-08-23T01:55:20;96387.63;;;15.62;68.99
71105;BME280;58760;48.716;8.962;2022-08-23T01:57:48;96392.56;;;15.52;67.95
71105;BME280;58760;48.716;8.962;2022-08-23T02:00:14;96394.22;;;15.53;67.22
71105;BME280;58760;48.716;8.962;2022-08-23T02:02:40;96385.13;;;15.41;67.32
71105;BME280;58760;48.716;8.962;2022-08-23T02:05:06;96389.03;;;15.39;67.28
71105;BME280;58760;48.716;8.962;2022-08-23T02:07:32;96381.84;;;15.39;67.99
71105;BME280;58760;48.716;8.962;2022-08-23T02:09:57;96384.50;;;15.39;69.21
71105;BME280;58760;48.716;8.962;2022-08-23T02:12:23;96383.91;;;15.37;69.09
71105;BME280;58760;48.716;8.962;2022-08-23T02:14:49;96376.91;;;15.36;68.75
71105;BME280;58760;48.716;8.962;2022-08-23T02:17:14;96375.25;;;15.35;68.83
71105;BME280;58760;48.716;8.962;2022-08-23T02:19:43;96371.97;;;15.33;68.37
71105;BME280;58760;48.716;8.962;2022-08-23T02:22:10;96385.34;;;15.33;68.33
71105;BME280;58760;48.716;8.962;2022-08-23T02:24:40;96385.34;;;15.27;69.22
71105;BME280;58760;48.716;8.962;2022-08-23T02:27:06;96389.44;;;15.23;70.11
71105;BME280;58760;48.716;8.962;2022-08-23T02:29:33;96390.88;;;15.12;69.93
71105;BME280;58760;48.716;8.962;2022-08-23T02:31:59;96390.88;;;15.18;69.07
71105;BME280;58760;48.716;8.962;2022-08-23T02:34:27;96397.88;;;15.19;68.92
71105;BME280;58760;48.716;8.962;2022-08-23T02:36:53;96392.75;;;15.18;69.32
71105;BME280;58760;48.716;8.962;2022-08-23T02:39:19;96400.75;;;15.11;70.39
71105;BME280;58760;48.716;8.962;2022-08-23T02:41:45;96404.03;;;15.07;70.39
71105;BME280;58760;48.716;8.962;2022-08-23T02:44:11;96402.34;;;14.93;70.81
71105;BME280;58760;48.716;8.962;2022-08-23T02:46:37;96401.13;;;14.89;72.67
71105;BME280;58760;48.716;8.962;2022-08-23T02:49:03;96396.38;;;14.78;71.16
71105;BME280;58760;48.716;8.962;2022-08-23T02:51:29;96410.72;;;14.70;71.76
71105;BME280;58760;48.716;8.962;2022-08-23T02:53:55;96408.88;;;14.71;71.92
71105;BME280;58760;48.716;8.962;2022-08-23T02:56:20;96407.63;;;14.66;72.50
71105;BME280;58760;48.716;8.962;2022-08-23T02:58:46;96407.00;;;14.58;72.47
71105;BME280;58760;48.716;8.962;2022-08-23T03:01:26;96403.91;;;14.54;73.09
71105;BME280;58760;48.716;8.962;2022-08-23T03:03:53;96410.69;;;14.57;73.03
71105;BME280;58760;48.716;8.962;2022-08-23T03:06:18;96405.56;;;14.55;72.93
71105;BME280;58760;48.716;8.962;2022-08-23T03:08:44;96406.78;;;14.53;71.98
71105;BME280;58760;48.716;8.962;2022-08-23T03:11:14;96411.72;;;14.49;71.67
71105;BME280;58760;48.716;8.962;2022-08-23T03:13:42;96415.84;;;14.58;71.10
71105;BME280;58760;48.716;8.962;2022-08-23T03:16:09;96407.78;;;14.45;71.72
71105;BME280;58760;48.716;8.962;2022-08-23T03:18:35;96414.34;;;14.43;71.82
71105;BME280;58760;48.716;8.962;2022-08-23T03:21:03;96417.03;;;14.43;71.76
71105;BME280;58760;48.716;8.962;2022-08-23T03:23:29;96420.53;;;14.43;72.16
71105;BME280;58760;48.716;8.962;2022-08-23T03:25:59;96418.47;;;14.45;72.16
71105;BME280;58760;48.716;8.962;2022-08-23T03:28:26;96417.25;;;14.54;71.42
71105;BME280;58760;48.716;8.962;2022-08-23T03:30:51;96413.75;;;14.54;71.19
71105;BME280;58760;48.716;8.962;2022-08-23T03:33:17;96414.16;;;14.51;71.62
71105;BME280;58760;48.716;8.962;2022-08-23T03:35:43;96412.91;;;14.40;71.74
71105;BME280;58760;48.716;8.962;2022-08-23T03:38:09;96409.84;;;14.43;72.29
71105;BME280;58760;48.716;8.962;2022-08-23T03:40:34;96409.16;;;14.35;72.33
71105;BME280;58760;48.716;8.962;2022-08-23T03:43:00;96410.78;;;14.29;72.00
71105;BME280;58760;48.716;8.962;2022-08-23T03:45:26;96414.06;;;14.31;72.56
71105;BME280;58760;48.716;8.962;2022-08-23T03:47:52;96420.63;;;14.29;73.09
71105;BME280;58760;48.716;8.962;2022-08-23T03:50:17;96416.06;;;14.23;72.92
71105;BME280;58760;48.716;8.962;2022-08-23T03:52:43;96418.34;;;14.26;72.71
71105;BME280;58760;48.716;8.962;2022-08-23T03:55:09;96428.44;;;14.30;73.71
71105;BME280;58760;48.716;8.962;2022-08-23T03:57:34;96423.09;;;14.30;72.67
71105;BME280;58760;48.716;8.962;2022-08-23T03:59:59;96425.13;;;14.28;73.80
71105;BME280;58760;48.716;8.962;2022-08-23T04:02:25;96430.25;;;14.23;72.02
71105;BME280;58760;48.716;8.962;2022-08-23T04:04:51;96425.97;;;14.29;72.26
71105;BME280;58760;48.716;8.962;2022-08-23T04:07:19;96428.44;;;14.30;73.01
71105;BME280;58760;48.716;8.962;2022-08-23T04:09:45;96434.78;;;14.29;73.56
71105;BME280;58760;48.716;8.962;2022-08-23T04:12:11;96439.31;;;14.29;73.84
71105;BME280;58760;48.716;8.962;2022-08-23T04:14:37;96433.13;;;14.28;73.93
71105;BME280;58760;48.716;8.962;2022-08-23T04:17:02;96434.53;;;14.24;73.39
71105;BME280;58760;48.716;8.962;2022-08-23T04:19:28;96443.34;;;14.18;73.79
71105;BME280;58760;48.716;8.962;2022-08-23T04:21:53;96436.75;;;14.07;74.30
71105;BME280;58760;48.716;8.962;2022-08-23T04:24:19;96446.75;;;14.05;74.66
71105;BME280;58760;48.716;8.962;2022-08-23T04:26:45;96442.22;;;13.99;74.18
71105;BME280;58760;48.716;8.962;2022-08-23T04:29:10;96441.22;;;14.00;75.56
71105;BME280;58760;48.716;8.962;2022-08-23T04:31:38;96446.34;;;14.02;75.20
71105;BME280;58760;48.716;8.962;2022-08-23T04:34:04;96451.28;;;14.05;75.20
71105;BME280;58760;48.716;8.962;2022-08-23T04:36:37;96451.66;;;14.02;74.96
71105;BME280;58760;48.716;8.962;2022-08-23T04:39:03;96460.84;;;13.93;74.97
71105;BME280;58760;48.716;8.962;2022-08-23T04:41:29;96456.31;;;13.87;74.38
71105;BME280;58760;48.716;8.962;2022-08-23T04:44:13;96466.09;;;13.80;74.13
71105;BME280;58760;48.716;8.962;2022-08-23T04:46:39;96464.03;;;13.75;74.38
71105;BME280;58760;48.716;8.962;2022-08-23T04:49:05;96474.88;;;13.74;74.56
71105;BME280;58760;48.716;8.962;2022-08-23T04:51:30;96476.09;;;13.71;74.32
71105;BME280;58760;48.716;8.962;2022-08-23T04:53:56;96473.66;;;13.76;75.12
71105;BME280;58760;48.716;8.962;2022-08-23T04:56:21;96481.28;;;13.79;74.41
71105;BME280;58760;48.716;8.962;2022-08-23T04:58:47;96474.19;;;13.93;74.17
71105;BME280;58760;48.716;8.962;2022-08-23T05:01:13;96475.69;;;14.02;73.37
71105;BME280;58760;48.716;8.962;2022-08-23T05:03:40;96481.66;;;14.04;73.28
71105;BME280;58760;48.716;8.962;2022-08-23T05:06:05;96486.19;;;14.03;73.68
71105;BME280;58760;48.716;8.962;2022-08-23T05:08:31;96480.22;;;14.08;73.56
71105;BME280;58760;48.716;8.962;2022-08-23T05:11:05;96481.91;;;14.09;73.53
71105;BME280;58760;48.716;8.962;2022-08-23T05:13:31;96483.97;;;14.13;73.65
71105;BME280;58760;48.716;8.962;2022-08-23T05:15:57;96485.66;;;14.21;73.99
71105;BME280;58760;48.716;8.962;2022-08-23T05:18:23;96481.09;;;14.15;74.52
71105;BME280;58760;48.716;8.962;2022-08-23T05:20:49;96489.38;;;14.20;74.22
71105;BME280;58760;48.716;8.962;2022-08-23T05:23:15;96490.84;;;14.29;72.73
71105;BME280;58760;48.716;8.962;2022-08-23T05:25:40;96499.09;;;14.34;72.76
71105;BME280;58760;48.716;8.962;2022-08-23T05:28:26;96490.38;;;14.53;71.59
71105;BME280;58760;48.716;8.962;2022-08-23T05:31:02;96492.28;;;14.59;71.41
71105;BME280;58760;48.716;8.962;2022-08-23T05:33:30;96499.19;;;14.47;72.28
71105;BME280;58760;48.716;8.962;2022-08-23T05:35:55;96498.34;;;14.47;72.03
71105;BME280;58760;48.716;8.962;2022-08-23T05:38:23;96497.19;;;14.56;72.25
71105;BME280;58760;48.716;8.962;2022-08-23T05:40:50;96502.72;;;14.54;71.86
71105;BME280;58760;48.716;8.962;2022-08-23T05:43:16;96501.13;;;14.66;71.81
71105;BME280;58760;48.716;8.962;2022-08-23T05:45:41;96497.28;;;14.76;72.04
71105;BME280;58760;48.716;8.962;2022-08-23T05:48:07;96503.59;;;14.68;72.76
71105;BME280;58760;48.716;8.962;2022-08-23T05:50:35;96501.13;;;14.66;72.87
71105;BME280;58760;48.716;8.962;2022-08-23T05:53:01;96507.50;;;14.65;74.12
71105;BME280;58760;48.716;8.962;2022-08-23T05:55:26;96507.31;;;14.74;73.71
71105;BME280;58760;48.716;8.962;2022-08-23T05:57:52;96516.59;;;14.78;72.98
71105;BME280;58760;48.716;8.962;2022-08-23T06:00:17;96517.00;;;14.81;73.79
71105;BME280;58760;48.716;8.962;2022-08-23T06:02:42;96519.91;;;14.86;73.61
71105;BME280;58760;48.716;8.962;2022-08-23T06:05:08;96519.13;;;14.92;72.82
71105;BME280;58760;48.716;8.962;2022-08-23T06:07:34;96518.31;;;14.98;72.65
71105;BME280;58760;48.716;8.962;2022-08-23T06:10:01;96512.59;;;15.08;72.12
71105;BME280;58760;48.716;8.962;2022-08-23T06:12:27;96519.59;;;15.15;72.25
71105;BME280;58760;48.716;8.962;2022-08-23T06:14:52;96520.44;;;15.29;71.67
71105;BME280;58760;48.716;8.962;2022-08-23T06:17:17;96525.81;;;15.42;71.90
71105;BME280;58760;48.716;8.962;2022-08-23T06:19:43;96526.28;;;15.52;71.62
71105;BME280;58760;48.716;8.962;2022-08-23T06:22:08;96526.31;;;15.65;71.13
71105;BME280;58760;48.716;8.962;2022-08-23T06:24:34;96514.78;;;15.72;70.93
71105;BME280;58760;48.716;8.962;2022-08-23T06:26:59;96528.59;;;15.82;71.62
71105;BME280;58760;48.716;8.962;2022-08-23T06:29:25;96528.78;;;15.87;71.97
71105;BME280;58760;48.716;8.962;2022-08-23T06:31:51;96523.66;;;15.92;71.21
71105;BME280;58760;48.716;8.962;2022-08-23T06:34:32;96525.72;;;16.03;71.36
71105;BME280;58760;48.716;8.962;2022-08-23T06:37:04;96524.66;;;16.10;71.07
71105;BME280;58760;48.716;8.962;2022-08-23T06:39:30;96531.03;;;16.22;71.24
71105;BME280;58760;48.716;8.962;2022-08-23T06:41:59;96534.31;;;16.31;70.71
71105;BME280;58760;48.716;8.962;2022-08-23T06:44:25;96526.47;;;16.43;70.38
71105;BME280;58760;48.716;8.962;2022-08-23T06:46:52;96526.66;;;16.54;69.92
71105;BME280;58760;48.716;8.962;2022-08-23T06:49:18;96530.16;;;16.61;69.79
71105;BME280;58760;48.716;8.962;2022-08-23T06:51:48;96526.22;;;16.70;69.47
71105;BME280;58760;48.716;8.962;2022-08-23T06:54:16;96527.09;;;17.09;67.32
71105;BME280;58760;48.716;8.962;2022-08-23T06:56:43;96534.53;;;17.13;67.44
71105;BME280;58760;48.716;8.962;2022-08-23T06:59:09;96530.47;;;17.36;66.80
71105;BME280;58760;48.716;8.962;2022-08-23T07:01:44;96523.59;;;17.46;66.75
71105;BME280;58760;48.716;8.962;2022-08-23T07:04:12;96527.50;;;17.50;66.96
71105;BME280;58760;48.716;8.962;2022-08-23T07:06:39;96531.97;;;17.63;66.87
71105;BME280;58760;48.716;8.962;2022-08-23T07:09:05;96535.25;;;17.71;65.43
71105;BME280;58760;48.716;8.962;2022-08-23T07:11:31;96530.22;;;17.82;65.12
71105;BME280;58760;48.716;8.962;2022-08-23T07:14:03;96533.84;;;17.94;65.00
71105;BME280;58760;48.716;8.962;2022-08-23T07:16:34;96532.06;;;18.06;64.79
71105;BME280;58760;48.716;8.962;2022-08-23T07:19:00;96538.16;;;18.19;63.70
71105;BME280;58760;48.716;8.962;2022-08-23T07:21:26;96540.66;;;18.39;63.76
71105;BME280;58760;48.716;8.962;2022-08-23T07:23:51;96543.72;;;18.43;63.54
71105;BME280;58760;48.716;8.962;2022-08-23T07:26:17;96542.38;;;18.58;63.36
71105;BME280;58760;48.716;8.962;2022-08-23T07:28:43;96543.63;;;18.74;61.90
71105;BME280;58760;48.716;8.962;2022-08-23T07:31:18;96560.59;;;18.93;62.17
71105;BME280;58760;48.716;8.962;2022-08-23T07:33:44;96548.13;;;18.98;61.40
71105;BME280;58760;48.716;8.962;2022-08-23T07:36:12;96551.47;;;19.12;59.84
71105;BME280;58760;48.716;8.962;2022-08-23T07:38:38;96543.28;;;19.37;59.05
71105;BME280;58760;48.716;8.962;2022-08-23T07:41:03;96551.91;;;19.45;58.82
71105;BME280;58760;48.716;8.962;2022-08-23T07:43:31;96552.19;;;19.55;58.41
71105;BME280;58760;48.716;8.962;2022-08-23T07:45:57;96546.13;;;19.60;58.21
71105;BME280;58760;48.716;8.962;2022-08-23T07:48:22;96553.81;;;19.86;57.20
71105;BME280;58760;48.716;8.962;2022-08-23T07:50:57;96547.97;;;19.89;56.66
71105;BME280;58760;48.716;8.962;2022-08-23T07:53:23;96551.28;;;20.03;55.58
71105;BME280;58760;48.716;8.962;2022-08-23T07:55:50;96552.69;;;20.17;54.47
71105;BME280;58760;48.716;8.962;2022-08-23T07:58:16;96548.75;;;20.43;52.74
71105;BME280;58760;48.716;8.962;2022-08-23T08:00:41;96549.34;;;20.45;52.19
71105;BME280;58760;48.716;8.962;2022-08-23T08:03:07;96545.47;;;20.75;50.37
71105;BME280;58760;48.716;8.962;2022-08-23T08:05:34;96556.59;;;20.79;50.95
71105;BME280;58760;48.716;8.962;2022-08-23T08:08:00;96545.81;;;20.91;49.82
71105;BME280;58760;48.716;8.962;2022-08-23T08:10:26;96552.00;;;21.03;49.34
71105;BME280;58760;48.716;8.962;2022-08-23T08:12:51;96551.50;;;21.29;47.73
71105;BME280;58760;48.716;8.962;2022-08-23T08:15:17;96554.06;;;21.24;47.85
71105;BME280;58760;48.716;8.962;2022-08-23T08:17:46;96548.53;;;21.30;46.78
71105;BME280;58760;48.716;8.962;2022-08-23T08:20:12;96546.81;;;21.53;46.14
71105;BME280;58760;48.716;8.962;2022-08-23T08:22:37;96547.75;;;21.58;45.22
71105;BME280;58760;48.716;8.962;2022-08-23T08:25:03;96550.53;;;21.63;45.27
71105;BME280;58760;48.716;8.962;2022-08-23T08:27:28;96553.09;;;21.70;43.84
71105;BME280;58760;48.716;8.962;2022-08-23T08:29:54;96558.19;;;21.83;44.53
71105;BME280;58760;48.716;8.962;2022-08-23T08:32:19;96554.72;;;21.99;44.92
71105;BME280;58760;48.716;8.962;2022-08-23T08:34:45;96562.19;;;22.09;43.44
71105;BME280;58760;48.716;8.962;2022-08-23T08:37:10;96565.00;;;22.14;43.06
71105;BME280;58760;48.716;8.962;2022-08-23T08:39:35;96568.59;;;22.36;43.74
71105;BME280;58760;48.716;8.962;2022-08-23T08:44:55;96560.31;;;22.42;43.18
71105;BME280;58760;48.716;8.962;2022-08-23T08:47:48;96568.50;;;22.48;43.70
71105;BME280;58760;48.716;8.962;2022-08-23T08:50:20;96564.97;;;22.47;43.60
71105;BME280;58760;48.716;8.962;2022-08-23T08:53:12;96568.13;;;22.39;42.16
71105;BME280;58760;48.716;8.962;2022-08-23T08:55:48;96568.78;;;22.29;43.04
71105;BME280;58760;48.716;8.962;2022-08-23T08:58:45;96572.13;;;22.36;43.76
71105;BME280;58760;48.716;8.962;2022-08-23T09:01:15;96569.66;;;22.52;43.02
71105;BME280;58760;48.716;8.962;2022-08-23T09:03:40;96574.69;;;22.43;43.71
71105;BME280;58760;48.716;8.962;2022-08-23T09:06:15;96570.16;;;22.49;44.31
71105;BME280;58760;48.716;8.962;2022-08-23T09:14:15;96574.78;;;23.03;40.59
71105;BME280;58760;48.716;8.962;2022-08-23T09:19:08;96569.19;;;23.10;41.69
71105;BME280;58760;48.716;8.962;2022-08-23T09:21:58;96566.97;;;23.28;40.53
71105;BME280;58760;48.716;8.962;2022-08-23T09:24:25;96565.16;;;23.34;39.36
71105;BME280;58760;48.716;8.962;2022-08-23T09:26:51;96567.09;;;23.38;38.50
71105;BME280;58760;48.716;8.962;2022-08-23T09:29:27;96570.28;;;23.52;38.72
71105;BME280;58760;48.716;8.962;2022-08-23T09:31:55;96571.84;;;23.48;39.61
71105;BME280;58760;48.716;8.962;2022-08-23T09:37:16;96568.19;;;23.59;37.14
71105;BME280;58760;48.716;8.962;2022-08-23T09:40:18;96569.53;;;23.57;37.60
71105;BME280;58760;48.716;8.962;2022-08-23T09:42:37;96566.16;;;23.71;36.92
71105;BME280;58760;48.716;8.962;2022-08-23T09:47:49;96550.66;;;23.93;37.45
71105;BME280;58760;48.716;8.962;2022-08-23T09:50:25;96551.75;;;24.19;36.02
71105;BME280;58760;48.716;8.962;2022-08-23T09:52:59;96562.22;;;24.37;36.08
71105;BME280;58760;48.716;8.962;2022-08-23T09:55:31;96558.38;;;24.33;36.03
71105;BME280;58760;48.716;8.962;2022-08-23T09:57:59;96560.25;;;24.28;35.08
71105;BME280;58760;48.716;8.962;2022-08-23T10:00:32;96557.25;;;24.29;34.89
71105;BME280;58760;48.716;8.962;2022-08-23T10:03:19;96558.72;;;24.42;34.58
71105;BME280;58760;48.716;8.962;2022-08-23T10:05:50;96564.72;;;24.44;34.80
71105;BME280;58760;48.716;8.962;2022-08-23T10:08:25;96549.94;;;24.30;35.16
71105;BME280;58760;48.716;8.962;2022-08-23T10:10:55;96549.94;;;24.30;36.28
71105;BME280;58760;48.716;8.962;2022-08-23T10:13:22;96555.13;;;24.31;35.50
71105;BME280;58760;48.716;8.962;2022-08-23T10:18:39;96545.97;;;24.79;35.03
71105;BME280;58760;48.716;8.962;2022-08-23T10:21:22;96545.97;;;24.79;36.27
71105;BME280;58760;48.716;8.962;2022-08-23T10:24:01;96548.94;;;24.78;34.08
71105;BME280;58760;48.716;8.962;2022-08-23T10:26:30;96545.97;;;24.79;34.75
71105;BME280;58760;48.716;8.962;2022-08-23T10:29:07;96546.72;;;25.07;34.58
71105;BME280;58760;48.716;8.962;2022-08-23T10:40:09;96544.50;;;25.61;33.13
71105;BME280;58760;48.716;8.962;2022-08-23T10:45:35;96538.28;;;25.65;32.97
71105;BME280;58760;48.716;8.962;2022-08-23T10:48:20;96531.78;;;25.81;32.13
71105;BME280;58760;48.716;8.962;2022-08-23T10:50:57;96528.75;;;25.73;33.31
71105;BME280;58760;48.716;8.962;2022-08-23T10:53:33;96529.59;;;25.83;34.13
71105;BME280;58760;48.716;8.962;2022-08-23T10:55:59;96525.00;;;25.94;33.31
71105;BME280;58760;48.716;8.962;2022-08-23T10:58:50;96524.75;;;26.11;33.56
71105;BME280;58760;48.716;8.962;2022-08-23T11:01:40;96513.59;;;26.07;31.67
71105;BME280;58760;48.716;8.962;2022-08-23T11:05:01;96508.69;;;26.04;32.28
71105;BME280;58760;48.716;8.962;2022-08-23T11:07:20;96507.66;;;26.20;34.47
71105;BME280;58760;48.716;8.962;2022-08-23T11:10:16;96515.00;;;26.20;31.92
71105;BME280;58760;48.716;8.962;2022-08-23T11:12:57;96506.25;;;26.18;31.75
71105;BME280;58760;48.716;8.962;2022-08-23T11:21:06;96492.13;;;26.36;31.65
71105;BME280;58760;48.716;8.962;2022-08-23T11:23:53;96492.66;;;26.38;31.06
71105;BME280;58760;48.716;8.962;2022-08-23T11:29:33;96494.00;;;26.56;32.13
71105;BME280;58760;48.716;8.962;2022-08-23T11:34:17;96491.44;;;27.10;31.88
71105;BME280;58760;48.716;8.962;2022-08-23T11:40:13;96506.31;;;27.91;30.34
71105;BME280;58760;48.716;8.962;2022-08-23T11:42:47;96489.34;;;27.99;30.67
71105;BME280;58760;48.716;8.962;2022-08-23T12:01:34;96483.78;;;31.42;25.60
71105;BME280;58760;48.716;8.962;2022-08-23T12:04:04;96480.22;;;31.91;24.41
71105;BME280;58760;48.716;8.962;2022-08-23T12:06:48;96476.41;;;32.37;24.14
71105;BME280;58760;48.716;8.962;2022-08-23T12:09:50;96482.22;;;32.88;22.50
71105;BME280;58760;48.716;8.962;2022-08-23T12:12:31;96473.06;;;33.01;23.13
71105;BME280;58760;48.716;8.962;2022-08-23T12:15:02;96473.28;;;33.13;22.52
71105;BME280;58760;48.716;8.962;2022-08-23T12:23:01;96468.84;;;33.43;22.54
71105;BME280;58760;48.716;8.962;2022-08-23T12:25:28;96470.41;;;33.75;22.55
71105;BME280;58760;48.716;8.962;2022-08-23T12:28:09;96476.78;;;34.27;21.37
71105;BME280;58760;48.716;8.962;2022-08-23T12:33:42;96474.81;;;34.28;19.85
71105;BME280;58760;48.716;8.962;2022-08-23T12:39:31;96466.81;;;33.66;21.04
71105;BME280;58760;48.716;8.962;2022-08-23T12:42:08;96461.16;;;33.88;21.25
71105;BME280;58760;48.716;8.962;2022-08-23T12:44:35;96467.00;;;34.73;21.84
71105;BME280;58760;48.716;8.962;2022-08-23T12:47:09;96466.97;;;35.19;20.39
71105;BME280;58760;48.716;8.962;2022-08-23T12:49:36;96465.38;;;35.47;19.51
71105;BME280;58760;48.716;8.962;2022-08-23T12:52:07;96467.72;;;35.66;19.37
71105;BME280;58760;48.716;8.962;2022-08-23T12:54:40;96457.63;;;35.70;19.23
71105;BME280;58760;48.716;8.962;2022-08-23T12:57:08;96460.34;;;35.99;19.68
71105;BME280;58760;48.716;8.962;2022-08-23T13:02:09;96451.25;;;35.99;18.17
71105;BME280;58760;48.716;8.962;2022-08-23T13:04:38;96439.81;;;36.00;19.29
71105;BME280;58760;48.716;8.962;2022-08-23T13:07:07;96444.75;;;36.48;19.53
71105;BME280;58760;48.716;8.962;2022-08-23T13:09:38;96451.53;;;36.39;19.12
71105;BME280;58760;48.716;8.962;2022-08-23T13:12:06;96446.56;;;36.65;18.71
71105;BME280;58760;48.716;8.962;2022-08-23T13:20:14;96448.63;;;36.56;18.74
71105;BME280;58760;48.716;8.962;2022-08-23T13:22:59;96449.41;;;36.89;18.63
71105;BME280;58760;48.716;8.962;2022-08-23T13:25:33;96448.28;;;37.02;18.46
71105;BME280;58760;48.716;8.962;2022-08-23T13:28:46;96452.34;;;36.60;18.00
71105;BME280;58760;48.716;8.962;2022-08-23T13:31:02;96437.22;;;37.14;17.65
71105;BME280;58760;48.716;8.962;2022-08-23T13:33:28;96443.44;;;37.24;18.57
71105;BME280;58760;48.716;8.962;2022-08-23T13:36:22;96442.06;;;37.66;17.04
71105;BME280;58760;48.716;8.962;2022-08-23T13:38:48;96451.94;;;37.79;17.00
71105;BME280;58760;48.716;8.962;2022-08-23T13:41:43;96448.69;;;37.89;17.56
71105;BME280;58760;48.716;8.962;2022-08-23T13:44:08;96438.16;;;38.35;17.63
71105;BME280;58760;48.716;8.962;2022-08-23T13:46:43;96444.97;;;38.65;17.45
71105;BME280;58760;48.716;8.962;2022-08-23T13:49:13;96437.06;;;38.51;16.80
71105;BME280;58760;48.716;8.962;2022-08-23T13:51:41;96449.44;;;38.82;16.70
71105;BME280;58760;48.716;8.962;2022-08-23T13:54:12;96447.34;;;38.79;17.10
71105;BME280;58760;48.716;8.962;2022-08-23T13:59:24;96436.81;;;38.29;16.52
71105;BME280;58760;48.716;8.962;2022-08-23T14:01:50;96435.03;;;38.80;15.99
71105;BME280;58760;48.716;8.962;2022-08-23T14:04:16;96437.84;;;38.24;17.55
71105;BME280;58760;48.716;8.962;2022-08-23T14:06:41;96432.31;;;38.24;17.16
71105;BME280;58760;48.716;8.962;2022-08-23T14:09:07;96429.38;;;38.88;16.59
71105;BME280;58760;48.716;8.962;2022-08-23T14:11:33;96425.75;;;38.72;17.08
71105;BME280;58760;48.716;8.962;2022-08-23T14:13:58;96424.00;;;38.95;17.47
71105;BME280;58760;48.716;8.962;2022-08-23T14:16:30;96426.50;;;39.47;17.16
71105;BME280;58760;48.716;8.962;2022-08-23T14:18:56;96430.03;;;39.79;15.92
71105;BME280;58760;48.716;8.962;2022-08-23T14:21:22;96428.03;;;39.13;16.76
71105;BME280;58760;48.716;8.962;2022-08-23T14:23:48;96432.03;;;37.61;18.51
71105;BME280;58760;48.716;8.962;2022-08-23T14:26:15;96431.94;;;37.46;17.70
71105;BME280;58760;48.716;8.962;2022-08-23T14:28:42;96431.88;;;38.22;17.55
71105;BME280;58760;48.716;8.962;2022-08-23T14:31:08;96433.09;;;36.31;18.71
71105;BME280;58760;48.716;8.962;2022-08-23T14:33:34;96439.06;;;35.50;20.46
71105;BME280;58760;48.716;8.962;2022-08-23T14:35:59;96434.72;;;35.70;19.57
71105;BME280;58760;48.716;8.962;2022-08-23T14:38:25;96434.66;;;35.99;19.72
71105;BME280;58760;48.716;8.962;2022-08-23T14:40:56;96430.25;;;35.56;19.73
71105;BME280;58760;48.716;8.962;2022-08-23T14:43:23;96435.03;;;35.68;19.40